createdAt,value
2017-11-01T08:07:09.075Z,99.90
2017-11-01T08:09:35.050Z,99.90
2017-11-01T08:12:01.067Z,99.90
2017-11-01T08:14:27.111Z,99.90
2017-11-01T08:16:53.873Z,99.90
2017-11-01T08:19:19.790Z,99.90
2017-11-01T08:21:45.772Z,99.90
2017-11-01T08:24:11.733Z,99.90
2017-11-01T08:26:37.839Z,99.90
2017-11-01T08:29:03.885Z,99.90
2017-11-01T08:31:29.996Z,99.90
2017-11-01T08:33:56.009Z,99.90
2017-11-01T08:36:21.979Z,99.90
2017-11-01T08:38:47.991Z,99.90
2017-11-01T08:41:13.970Z,99.90
2017-11-01T08:43:40.104Z,99.90
2017-11-01T08:46:06.175Z,99.90
2017-11-01T08:48:33.258Z,99.90
2017-11-01T08:50:59.307Z,99.90
2017-11-01T08:53:25.348Z,99.90
2017-11-01T08:55:51.317Z,99.90
2017-11-01T08:58:17.300Z,99.90
2017-11-01T09:00:44.022Z,99.90
2017-11-01T09:03:10.129Z,99.90
2017-11-01T09:05:36.066Z,99.90
2017-11-01T09:08:03.303Z,99.90
2017-11-01T09:10:29.347Z,99.90
2017-11-01T09:12:55.351Z,99.90
2017-11-01T09:15:21.316Z,99.90
2017-11-01T09:17:47.403Z,99.90
2017-11-01T09:20:13.431Z,99.90
2017-11-01T09:22:39.377Z,99.90
2017-11-01T09:25:05.402Z,99.90
2017-11-01T09:27:31.504Z,99.90
2017-11-01T09:29:57.449Z,99.90
2017-11-01T09:32:23.374Z,99.90
2017-11-01T09:34:49.437Z,99.90
2017-11-01T09:37:15.373Z,99.90
2017-11-01T09:39:41.372Z,99.90
2017-11-01T09:42:07.364Z,99.90
2017-11-01T09:44:47.299Z,99.90
2017-11-01T09:47:18.794Z,99.90
2017-11-01T09:49:44.893Z,99.90
2017-11-01T09:52:10.867Z,99.90
2017-11-01T09:54:37.592Z,99.90
2017-11-01T09:57:03.528Z,99.90
2017-11-01T09:59:29.492Z,99.90
2017-11-01T10:01:55.452Z,99.90
2017-11-01T10:04:21.397Z,99.90
2017-11-01T10:06:47.408Z,99.90
2017-11-01T10:09:13.336Z,99.90
2017-11-01T10:11:39.414Z,99.90
2017-11-01T10:14:05.435Z,99.90
2017-11-01T10:16:31.354Z,99.90
2017-11-01T10:18:57.287Z,99.90
2017-11-01T10:21:23.378Z,99.90
2017-11-01T10:23:49.300Z,99.90
2017-11-01T10:26:15.260Z,99.90
2017-11-01T10:28:41.301Z,99.90
2017-11-01T10:31:07.314Z,99.90
2017-11-01T10:33:33.251Z,99.90
2017-11-01T10:35:59.216Z,99.90
2017-11-01T10:38:25.195Z,99.70
2017-11-01T10:40:51.195Z,99.00
2017-11-01T10:43:17.179Z,98.70
2017-11-01T10:45:43.199Z,98.80
2017-11-01T10:48:09.139Z,99.00
2017-11-01T10:50:35.077Z,98.70
2017-11-01T10:53:01.056Z,98.20
2017-11-01T10:55:27.046Z,98.10
2017-11-01T10:57:53.046Z,98.00
2017-11-01T11:00:18.993Z,98.00
2017-11-01T11:02:44.949Z,97.70
2017-11-01T11:05:10.889Z,97.50
2017-11-01T11:07:37.360Z,97.30
2017-11-01T11:10:03.473Z,97.30
2017-11-01T11:12:29.422Z,97.50
2017-11-01T11:14:55.443Z,97.20
2017-11-01T11:17:22.122Z,96.80
2017-11-01T11:19:48.081Z,96.80
2017-11-01T11:22:14.080Z,97.40
2017-11-01T11:24:40.077Z,96.50
2017-11-01T11:27:07.090Z,95.90
2017-11-01T11:29:33.064Z,95.70
2017-11-01T11:31:59.021Z,94.90
2017-11-01T11:34:25.082Z,95.40
2017-11-01T11:36:51.031Z,95.50
2017-11-01T11:39:16.989Z,96.00
2017-11-01T11:41:42.959Z,96.20
2017-11-01T11:44:08.915Z,95.20
2017-11-01T11:46:35.053Z,95.60
2017-11-01T11:49:01.114Z,96.20
2017-11-01T11:51:27.169Z,96.10
2017-11-01T11:53:53.103Z,96.10
2017-11-01T11:56:19.068Z,96.10
2017-11-01T11:58:45.088Z,96.20
2017-11-01T12:01:11.276Z,95.80
2017-11-01T12:03:37.211Z,95.90
2017-11-01T12:06:03.142Z,94.80
2017-11-01T12:08:29.819Z,94.00
2017-11-01T12:10:55.763Z,93.90
2017-11-01T12:13:21.755Z,93.60
2017-11-01T12:15:48.576Z,94.60
2017-11-01T12:18:15.244Z,93.30
2017-11-01T12:20:41.235Z,93.30
2017-11-01T12:23:07.928Z,93.70
2017-11-01T12:25:33.965Z,93.60
2017-11-01T12:27:59.976Z,93.60
2017-11-01T12:30:25.919Z,93.50
2017-11-01T12:32:52.023Z,93.10
2017-11-01T12:35:17.979Z,91.70
2017-11-01T12:37:43.941Z,91.30
2017-11-01T12:40:10.004Z,91.30
2017-11-01T12:42:36.040Z,91.60
2017-11-01T12:45:03.293Z,91.50
2017-11-01T12:47:29.295Z,91.40
2017-11-01T12:49:55.243Z,91.50
2017-11-01T12:52:21.177Z,90.50
2017-11-01T12:54:47.097Z,90.80
2017-11-01T12:57:13.799Z,90.30
2017-11-01T12:59:39.743Z,90.20
2017-11-01T13:02:05.719Z,90.50
2017-11-01T13:04:31.667Z,90.80
2017-11-01T13:06:57.693Z,89.60
2017-11-01T13:09:23.659Z,87.80
2017-11-01T13:11:49.647Z,86.10
2017-11-01T13:14:15.604Z,85.50
2017-11-01T13:16:41.562Z,86.70
2017-11-01T13:19:07.542Z,83.70
2017-11-01T13:21:33.523Z,83.70
2017-11-01T13:23:59.477Z,83.30
2017-11-01T13:26:25.751Z,85.90
2017-11-01T13:28:51.719Z,87.40
2017-11-01T13:31:17.697Z,84.10
2017-11-01T13:33:43.717Z,85.10
2017-11-01T13:36:09.662Z,83.20
2017-11-01T13:38:35.819Z,84.80
2017-11-01T13:41:01.833Z,83.00
2017-11-01T13:43:28.611Z,80.50
2017-11-01T13:45:54.683Z,80.50
2017-11-01T13:48:21.412Z,81.80
2017-11-01T13:50:47.364Z,81.80
2017-11-01T13:53:13.351Z,82.00
2017-11-01T13:55:39.378Z,80.90
2017-11-01T13:58:06.783Z,78.80
2017-11-01T14:00:32.923Z,78.70
2017-11-01T14:02:58.933Z,80.70
2017-11-01T14:05:24.928Z,81.20
2017-11-01T14:07:50.872Z,79.20
2017-11-01T14:10:16.806Z,78.40
2017-11-01T14:12:42.781Z,77.60
2017-11-01T14:15:08.723Z,79.00
2017-11-01T14:17:34.704Z,78.10
2017-11-01T14:20:00.700Z,79.10
2017-11-01T14:22:26.679Z,78.70
2017-11-01T14:24:52.591Z,76.90
2017-11-01T14:27:19.556Z,77.10
2017-11-01T14:29:45.494Z,77.10
2017-11-01T14:32:11.439Z,77.10
2017-11-01T14:34:37.410Z,76.90
2017-11-01T14:37:04.531Z,78.70
2017-11-01T14:39:31.314Z,79.50
2017-11-01T14:41:57.283Z,79.40
2017-11-01T14:44:23.308Z,79.10
2017-11-01T14:46:49.257Z,80.20
2017-11-01T14:49:15.308Z,80.20
2017-11-01T14:51:42.012Z,81.50
2017-11-01T14:54:08.714Z,82.70
2017-11-01T14:56:34.811Z,82.60
2017-11-01T14:59:00.757Z,83.30
2017-11-01T15:01:26.768Z,83.60
2017-11-01T15:03:52.691Z,86.40
2017-11-01T15:06:18.619Z,86.40
2017-11-01T15:08:44.559Z,87.80
2017-11-01T15:11:10.534Z,88.80
2017-11-01T15:13:36.530Z,90.00
2017-11-01T15:16:02.472Z,90.60
2017-11-01T15:18:28.422Z,91.50
2017-11-01T15:20:54.366Z,92.10
2017-11-01T15:23:20.336Z,92.30
2017-11-01T15:25:46.442Z,92.80
2017-11-01T15:28:12.444Z,92.70
2017-11-01T15:30:39.147Z,93.50
2017-11-01T15:33:05.314Z,93.50
2017-11-01T15:35:31.336Z,93.20
2017-11-01T15:37:57.294Z,93.50
2017-11-01T15:40:23.295Z,94.00
2017-11-01T15:42:49.238Z,94.40
2017-11-01T15:45:15.287Z,94.60
2017-11-01T15:47:42.008Z,94.80
2017-11-01T15:50:07.950Z,94.80
2017-11-01T15:52:33.871Z,94.90
2017-11-01T15:54:59.980Z,95.20
2017-11-01T15:57:25.929Z,95.40
2017-11-01T15:59:52.029Z,95.50
2017-11-01T16:02:18.005Z,95.90
2017-11-01T16:04:44.028Z,96.10
2017-11-01T16:07:10.115Z,96.40
2017-11-01T16:09:36.095Z,96.60
2017-11-01T16:12:02.065Z,96.70
2017-11-01T16:14:28.098Z,96.80
2017-11-01T16:16:54.094Z,96.90
2017-11-01T16:19:20.131Z,96.70
2017-11-01T16:21:46.137Z,96.90
2017-11-01T16:24:12.063Z,96.90
2017-11-01T16:26:39.267Z,97.30
2017-11-01T16:29:07.456Z,97.70
2017-11-01T16:31:33.471Z,97.70
2017-11-01T16:33:59.437Z,97.30
2017-11-01T16:36:25.401Z,97.40
2017-11-01T16:38:51.295Z,97.80
2017-11-01T16:41:17.300Z,98.20
2017-11-01T16:43:44.314Z,98.30
2017-11-01T16:46:10.340Z,98.60
2017-11-01T16:48:36.307Z,99.00
2017-11-01T16:51:03.027Z,98.70
2017-11-01T16:53:28.997Z,98.60
2017-11-01T16:55:54.988Z,98.70
2017-11-01T16:58:21.014Z,98.80
2017-11-01T17:00:47.752Z,99.10
2017-11-01T17:03:13.717Z,99.00
2017-11-01T17:05:39.918Z,98.70
2017-11-01T17:08:06.015Z,98.50
2017-11-01T17:10:31.945Z,98.40
2017-11-01T17:12:57.960Z,98.40
2017-11-01T17:15:23.887Z,99.10
2017-11-01T17:17:49.903Z,99.20
2017-11-01T17:20:15.888Z,99.80
2017-11-01T17:22:41.817Z,99.90
2017-11-01T17:25:07.771Z,99.80
2017-11-01T17:27:35.502Z,99.90
2017-11-01T17:30:01.742Z,99.90
2017-11-01T17:32:27.697Z,99.90
2017-11-01T17:34:54.397Z,99.90
2017-11-01T17:37:20.567Z,99.90
2017-11-01T17:39:46.580Z,99.90
2017-11-01T17:42:13.260Z,99.90
2017-11-01T17:44:39.296Z,99.90
2017-11-01T17:47:05.354Z,99.90
2017-11-01T17:49:31.329Z,99.90
2017-11-01T17:51:57.319Z,99.90
2017-11-01T17:54:23.254Z,99.90
2017-11-01T17:56:49.245Z,99.90
2017-11-01T17:59:15.191Z,99.90
2017-11-01T18:01:41.900Z,99.90
2017-11-01T18:04:07.825Z,99.90
2017-11-01T18:06:33.872Z,99.90
2017-11-01T18:08:59.799Z,99.90
2017-11-01T18:11:25.783Z,99.90
2017-11-01T18:13:51.698Z,99.90
2017-11-01T18:16:17.610Z,99.90
2017-11-01T18:18:43.536Z,99.90
2017-11-01T18:21:09.557Z,99.90
2017-11-01T18:23:35.720Z,99.90
2017-11-01T18:26:01.680Z,99.90
2017-11-01T18:28:27.664Z,99.90
2017-11-01T18:30:53.616Z,99.90
2017-11-01T18:33:19.579Z,99.90
2017-11-01T18:35:45.580Z,99.90
2017-11-01T18:38:11.606Z,99.90
2017-11-01T18:40:37.555Z,99.90
2017-11-01T18:43:03.466Z,99.90
2017-11-01T18:45:30.405Z,99.90
2017-11-01T18:47:57.187Z,99.90
2017-11-01T18:50:23.138Z,99.90
2017-11-01T18:52:49.122Z,99.90
2017-11-01T18:55:15.090Z,99.90
2017-11-01T18:57:41.077Z,99.90
2017-11-01T19:00:07.250Z,99.90
2017-11-01T19:02:33.198Z,99.90
2017-11-01T19:04:59.294Z,99.90
2017-11-01T19:07:25.326Z,99.90
2017-11-01T19:09:51.997Z,99.90
2017-11-01T19:12:17.991Z,99.90
2017-11-01T19:14:44.668Z,99.90
2017-11-01T19:17:10.631Z,99.90
2017-11-01T19:19:36.570Z,99.90
2017-11-01T19:22:02.490Z,99.90
2017-11-01T19:24:29.181Z,99.90
2017-11-01T19:26:55.127Z,99.90
2017-11-01T19:29:21.074Z,99.90
2017-11-01T19:31:47.733Z,99.90
2017-11-01T19:34:13.742Z,99.90
2017-11-01T19:36:39.684Z,99.90
2017-11-01T19:39:05.758Z,99.90
2017-11-01T19:41:31.704Z,99.90
2017-11-01T19:43:57.607Z,99.90
2017-11-01T19:46:24.516Z,99.90
2017-11-01T19:48:50.501Z,99.90
2017-11-01T19:51:17.235Z,99.90
2017-11-01T19:53:43.162Z,99.90
2017-11-01T19:56:09.119Z,99.90
2017-11-01T19:58:35.101Z,99.90
2017-11-01T20:01:01.081Z,99.90
2017-11-01T20:03:27.103Z,99.90
2017-11-01T20:05:53.098Z,99.90
2017-11-01T20:08:19.064Z,99.90
2017-11-01T20:10:44.979Z,99.90
2017-11-01T20:13:11.052Z,99.90
2017-11-01T20:15:36.971Z,99.90
2017-11-01T20:18:03.875Z,99.90
2017-11-01T20:20:30.633Z,99.90
2017-11-01T20:22:56.571Z,99.90
2017-11-01T20:25:22.489Z,99.90
2017-11-01T20:27:48.454Z,99.90
2017-11-01T20:30:14.466Z,99.90
2017-11-01T20:32:40.507Z,99.90
2017-11-01T20:35:06.434Z,99.90
2017-11-01T20:37:32.402Z,99.90
2017-11-01T20:39:58.370Z,99.90
2017-11-01T20:42:24.347Z,99.90
2017-11-01T20:44:51.037Z,99.90
2017-11-01T20:47:16.992Z,99.90
2017-11-01T20:49:42.933Z,99.90
2017-11-01T20:52:08.905Z,99.90
2017-11-01T20:54:34.956Z,99.90
2017-11-01T20:57:00.965Z,99.90
2017-11-01T20:59:26.978Z,99.90
2017-11-01T21:01:52.898Z,99.90
2017-11-01T21:04:19.637Z,99.90
2017-11-01T21:06:45.570Z,99.90
2017-11-01T21:09:12.263Z,99.90
2017-11-01T21:11:38.223Z,99.90
2017-11-01T21:14:04.162Z,99.90
2017-11-01T21:16:30.090Z,99.90
2017-11-01T21:18:56.164Z,99.90
2017-11-01T21:21:22.127Z,99.90
2017-11-01T21:23:48.111Z,99.90
2017-11-01T21:26:14.148Z,99.90
2017-11-01T21:28:40.098Z,99.90
2017-11-01T21:31:06.052Z,99.90
2017-11-01T21:33:32.013Z,99.90
2017-11-01T21:35:57.965Z,99.90
2017-11-01T21:38:23.932Z,99.90
2017-11-01T21:40:49.964Z,99.90
2017-11-01T21:43:15.923Z,99.90
2017-11-01T21:45:41.909Z,99.90
2017-11-01T21:48:07.869Z,99.90
2017-11-01T21:50:33.885Z,99.90
2017-11-01T21:52:59.815Z,99.90
2017-11-01T21:55:25.755Z,99.90
2017-11-01T21:57:51.727Z,99.90
2017-11-01T22:00:18.451Z,99.90
2017-11-01T22:02:44.474Z,99.90
2017-11-01T22:05:10.437Z,99.90
2017-11-01T22:07:37.185Z,99.90
2017-11-01T22:10:03.176Z,99.90
2017-11-01T22:12:29.173Z,99.90
2017-11-01T22:14:55.113Z,99.90
2017-11-01T22:17:21.790Z,99.90
2017-11-01T22:19:47.758Z,99.90
2017-11-01T22:22:13.743Z,99.90
2017-11-01T22:24:39.711Z,99.90
2017-11-01T22:27:05.729Z,99.90
2017-11-01T22:29:31.880Z,99.90
2017-11-01T22:31:57.830Z,99.90
2017-11-01T22:34:23.741Z,99.90
2017-11-01T22:36:49.777Z,99.90
2017-11-01T22:39:15.756Z,99.90
2017-11-01T22:41:42.408Z,99.90
2017-11-01T22:44:08.483Z,99.90
2017-11-01T22:46:34.584Z,99.90
2017-11-01T22:49:00.735Z,99.90
2017-11-01T22:51:26.682Z,99.90
2017-11-01T22:53:52.831Z,99.90
2017-11-01T22:56:19.851Z,99.90
2017-11-01T22:58:47.523Z,99.90
2017-11-01T23:01:13.544Z,99.90
2017-11-01T23:03:39.509Z,99.90
2017-11-01T23:06:05.439Z,99.90
2017-11-01T23:08:31.397Z,99.90
2017-11-01T23:10:57.355Z,99.90
2017-11-01T23:13:23.325Z,99.90
2017-11-01T23:15:49.273Z,99.90
2017-11-01T23:18:15.255Z,99.90
2017-11-01T23:20:41.198Z,99.90
2017-11-01T23:23:07.135Z,99.90
2017-11-01T23:25:33.869Z,99.90
2017-11-01T23:27:59.807Z,99.90
2017-11-01T23:30:25.712Z,99.90
2017-11-01T23:32:51.647Z,99.90
2017-11-01T23:35:17.677Z,99.90
2017-11-01T23:37:43.644Z,99.90
2017-11-01T23:40:09.585Z,99.90
2017-11-01T23:42:35.537Z,99.90
2017-11-01T23:45:01.534Z,99.90
2017-11-01T23:47:27.488Z,99.90
2017-11-01T23:49:53.455Z,99.90
2017-11-01T23:52:19.400Z,99.90
2017-11-01T23:54:45.352Z,99.90
2017-11-01T23:57:11.320Z,99.90
2017-11-01T23:59:37.266Z,99.90
